Aérodrome :
LOGIN :

S'inscrire | Disclaimer

   EN    FR    IT 

 










Légende :    VFR   VFR Marginal   IFR   IFR Intensif   IFR Très Intensif
Visi : 
Plafond : 
>= 8 km
>= 3000ft
5 à 8 km
1000 à 3000 ft
1500m à 5 km
500 à 1000 ft
800 à 1500m
200 à 500 ft
< 800m
< 200 ft
Symboles :   Orages  Brouillard  Fortes neiges  Fortes précipitations  Vent > 20 kt
SIGMETs :   Divers  Orages  Givrage  Turbulence  Onde Orograph.  Cendres Volcan.






- Altitude de l'aérodrome : 42 ft
- Code IATA : KGD


UMKK - Khrabrava - Kaliningrad

DERNIER METAR :
  • 222030Z 14006MPS 9999 FEW020 01/M02 Q1022 R06/CLRD95 NOSIG RMK QFE765/1020

METARs EXPIRÉS :
  • 222000Z 14006MPS 9999 SCT021 01/M02 Q1022 R06/CLRD95 NOSIG RMK QFE765/1020
  • 221930Z 14006MPS 110V170 9999 SCT019 01/M02 Q1022 R06/95D NOSIG RMK QFE765/1020
  • 221900Z 14007MPS 9999 SCT020 01/M02 Q1022 R06/CLRD95 NOSIG RMK QFE765/1020
  • 221830Z 14007MPS 9999 SCT019 02/M02 Q1022 R06/95D NOSIG RMK QFE765/1020
  • 221800Z 14007G12MPS 9999 SCT019 02/M02 Q1022 R06/CLRD95 NOSIG RMK QFE765/1020

TAF TAF UMKK
Valide du 22 à 21h jusqu'au 23 à 21h UTC


221956Z 2221/2321 13005G10MPS 9999 BKN015
TEMPO 2318/2321 BKN011



MET'MAP, la Météo Aéronautique d'un coup d'oeil ! - Copyright ORBIFLY Décembre 2007 - Disclaimer

ORBIFLY MET'MAP TEAM :

Programmation & Développement : Alexandra Zaïnal
Conception & Développement : Baudouin d'Aumeries
Co-Programmation & Développement : Marc-Olivier Méhu
Soutien technique & logistique : Manuel Goepfert

Contact : metmap@orbifly.com




SOURCES & CREDITS :

   NOAA